createdAt,value
2023-06-14T02:50:47.081Z,62.14
2023-06-14T02:51:37.084Z,60.59
2023-06-14T02:52:37.011Z,60.43
2023-06-14T02:53:36.980Z,60.46
2023-06-14T02:54:36.985Z,60.53
2023-06-14T02:55:36.980Z,60.21
2023-06-14T02:56:37.013Z,60.12
2023-06-14T02:57:37.118Z,60.19
2023-06-14T02:58:37.314Z,60.18
2023-06-14T02:59:37.034Z,59.96
2023-06-14T03:00:37.005Z,59.89
2023-06-14T03:01:36.994Z,59.93
2023-06-14T03:02:36.976Z,59.85
2023-06-14T03:03:36.994Z,59.78
2023-06-14T03:04:36.880Z,59.75
2023-06-14T03:05:36.922Z,59.87
2023-06-14T03:06:36.897Z,59.77
2023-06-14T03:07:36.880Z,59.80
2023-06-14T03:08:36.870Z,59.73
2023-06-14T03:09:36.904Z,59.79
2023-06-14T03:10:36.883Z,59.63
2023-06-14T03:11:36.837Z,59.64
2023-06-14T03:12:36.916Z,59.51
2023-06-14T03:13:36.907Z,59.30
2023-06-14T03:14:37.857Z,59.19
2023-06-14T03:15:36.937Z,59.28
2023-06-14T03:16:36.882Z,59.30
2023-06-14T03:17:36.910Z,59.56
2023-06-14T03:18:36.935Z,59.78
2023-06-14T03:19:36.799Z,59.67
2023-06-14T03:20:36.807Z,59.63
2023-06-14T08:43:13.662Z,16.27
2023-06-14T08:44:13.533Z,15.70
2023-06-14T08:45:13.730Z,15.47
2023-06-14T08:46:14.187Z,15.16
2023-06-14T08:47:13.513Z,15.15
2023-06-14T08:48:13.512Z,15.14
2023-06-14T08:49:13.477Z,15.39
2023-06-14T08:50:27.329Z,15.46
2023-06-14T08:51:14.508Z,15.76
2023-06-14T08:52:15.323Z,15.87
2023-06-14T08:53:13.520Z,15.47
2023-06-14T08:54:13.449Z,15.36
2023-06-14T08:55:19.245Z,15.12
2023-06-14T08:56:13.376Z,15.08
2023-06-14T08:57:13.452Z,14.94
2023-06-14T08:58:13.394Z,15.29
2023-06-14T08:59:13.801Z,15.62
2023-06-14T09:00:13.596Z,15.45
2023-06-14T09:01:13.483Z,15.15
2023-06-14T09:02:16.221Z,15.12
2023-06-14T09:03:15.154Z,14.92
2023-06-14T09:04:13.379Z,14.82
2023-06-14T09:05:14.146Z,14.57
2023-06-14T09:06:13.446Z,14.38
2023-06-14T09:07:13.339Z,14.06
2023-06-14T09:08:13.339Z,13.91
2023-06-14T09:09:13.362Z,14.13
2023-06-14T09:10:13.347Z,14.45
2023-06-14T09:11:13.327Z,14.62
2023-06-14T09:12:13.680Z,15.15
2023-06-14T09:13:15.170Z,15.17
2023-06-14T09:14:13.360Z,15.38
2023-06-14T09:15:13.335Z,16.31
2023-06-14T09:16:13.370Z,16.16
2023-06-14T09:17:13.582Z,15.85
2023-06-14T09:18:13.459Z,15.54
2023-06-14T09:19:13.432Z,15.21
2023-06-14T09:20:13.706Z,15.17
2023-06-14T09:21:13.500Z,15.33
2023-06-14T09:22:13.979Z,15.12
2023-06-14T09:23:13.555Z,14.70
2023-06-14T09:24:13.776Z,14.86
2023-06-14T09:25:25.005Z,14.63
2023-06-14T09:26:14.660Z,14.57
2023-06-14T09:27:15.177Z,14.97
2023-06-14T09:28:13.649Z,14.97
2023-06-14T09:29:13.600Z,14.92
2023-06-14T09:30:13.569Z,14.74
2023-06-14T09:31:13.589Z,14.96
2023-06-14T09:32:13.548Z,15.27
2023-06-14T09:33:13.579Z,15.11
2023-06-14T09:34:13.525Z,14.94
2023-06-14T09:35:13.803Z,14.76
2023-06-14T09:36:13.490Z,14.46
2023-06-14T09:37:13.516Z,14.58
2023-06-14T09:38:15.476Z,14.46
2023-06-14T09:39:13.563Z,14.46
2023-06-14T09:40:13.517Z,14.08
2023-06-14T09:41:13.520Z,14.14
2023-06-14T09:42:13.531Z,13.88
2023-06-14T09:43:14.220Z,13.96
2023-06-14T09:44:18.938Z,14.03
2023-06-14T09:45:15.150Z,14.45
2023-06-14T09:46:13.716Z,14.10
2023-06-14T09:47:13.945Z,14.38
2023-06-14T09:48:13.853Z,15.19
2023-06-14T09:49:15.337Z,15.27
2023-06-14T09:50:13.968Z,15.10
2023-06-14T09:51:13.956Z,15.47
2023-06-14T09:52:13.998Z,15.25
2023-06-14T09:53:14.075Z,14.84
2023-06-14T09:54:14.118Z,14.45
2023-06-14T09:55:14.364Z,14.23
2023-06-14T09:56:14.249Z,13.66
2023-06-14T09:57:14.194Z,13.77
2023-06-14T09:58:14.240Z,13.63
2023-06-14T09:59:14.310Z,13.48
2023-06-14T10:00:14.622Z,12.97
2023-06-14T10:01:14.395Z,12.53
2023-06-14T10:02:14.352Z,12.27
2023-06-14T10:03:14.876Z,12.30
2023-06-14T10:04:14.467Z,12.22
2023-06-14T10:05:14.476Z,12.41
2023-06-14T10:06:14.560Z,12.37
2023-06-14T10:07:15.219Z,12.48
2023-06-14T10:08:14.587Z,11.95
2023-06-14T10:09:14.617Z,11.76
2023-06-14T10:10:15.013Z,12.17
2023-06-14T10:11:14.720Z,12.12
2023-06-14T10:12:14.804Z,12.24
2023-06-14T10:13:14.796Z,12.37
2023-06-14T10:14:15.846Z,12.41
2023-06-14T10:15:15.677Z,12.29
2023-06-14T10:16:15.003Z,11.74
2023-06-14T10:17:16.180Z,11.94
2023-06-14T10:18:14.984Z,11.84
2023-06-14T10:19:15.184Z,11.79
2023-06-14T10:20:15.178Z,11.70
2023-06-14T10:21:15.681Z,11.56
2023-06-14T10:22:15.066Z,11.83
2023-06-14T10:23:15.121Z,11.87
2023-06-14T10:24:15.076Z,11.75
2023-06-14T10:25:15.229Z,11.59
2023-06-14T10:26:16.254Z,11.62
2023-06-14T10:27:15.268Z,12.47
2023-06-14T10:28:15.169Z,12.76
2023-06-14T10:29:15.241Z,12.63
2023-06-14T10:30:15.478Z,12.20
2023-06-14T10:31:15.336Z,11.90
2023-06-14T10:32:15.466Z,11.76
2023-06-14T10:33:15.573Z,11.86
2023-06-14T11:02:19.737Z,13.22
2023-06-14T11:03:19.621Z,12.97
2023-06-14T11:25:33.778Z,13.41
2023-06-14T11:26:34.849Z,13.46
2023-06-14T12:38:02.509Z,20.22
2023-06-14T12:39:01.350Z,20.49
2023-06-14T12:40:01.293Z,20.81
2023-06-14T12:41:03.159Z,20.94
2023-06-14T12:42:05.106Z,20.59
2023-06-14T12:43:01.344Z,20.40
2023-06-14T12:44:01.256Z,20.40
2023-06-14T12:45:01.251Z,20.52
2023-06-14T12:46:01.369Z,20.28
2023-06-14T12:47:01.373Z,20.16
2023-06-14T12:48:01.261Z,20.61
2023-06-14T12:49:01.301Z,20.44
2023-06-14T12:50:02.109Z,20.36
2023-06-14T12:51:01.220Z,19.97
2023-06-14T12:52:01.217Z,19.60
2023-06-14T12:53:01.238Z,19.58
2023-06-14T12:54:02.636Z,19.62
2023-06-14T12:55:01.253Z,19.59
2023-06-14T12:56:04.619Z,19.84
2023-06-14T12:57:01.421Z,19.71
2023-06-14T12:58:01.170Z,20.10
2023-06-14T12:59:01.175Z,20.30
2023-06-14T13:00:01.258Z,19.93
2023-06-14T13:01:01.144Z,19.48
2023-06-14T13:02:01.280Z,19.57
2023-06-14T13:03:01.355Z,19.60
2023-06-14T13:04:01.206Z,19.73
2023-06-14T13:05:01.171Z,19.63
2023-06-14T13:06:01.158Z,19.44
2023-06-14T13:07:01.235Z,19.68
2023-06-14T13:08:01.132Z,19.82
2023-06-14T13:09:01.102Z,20.36
2023-06-14T13:10:01.134Z,20.26
2023-06-14T13:11:01.154Z,20.19
2023-06-14T13:12:01.122Z,20.27
2023-06-14T13:13:02.173Z,19.91
2023-06-14T13:14:04.008Z,19.90
2023-06-14T13:15:02.129Z,19.64
2023-06-14T13:16:01.221Z,19.54
2023-06-14T13:17:01.282Z,19.46
2023-06-14T13:18:01.284Z,19.92
2023-06-14T13:19:01.141Z,19.95
2023-06-14T13:20:01.163Z,20.04
2023-06-14T13:21:01.105Z,20.00
2023-06-14T13:22:01.617Z,20.42
2023-06-14T13:23:01.134Z,20.54
2023-06-14T13:24:02.706Z,20.88
2023-06-14T13:25:01.037Z,20.52
2023-06-14T13:26:04.219Z,20.45
2023-06-14T13:27:01.291Z,20.31
2023-06-14T13:28:01.020Z,20.23
2023-06-14T13:29:01.009Z,20.21
2023-06-14T13:30:00.980Z,20.39
2023-06-14T13:31:00.966Z,20.56
2023-06-14T13:32:01.011Z,20.86
2023-06-14T13:33:01.253Z,21.09
2023-06-14T13:34:01.185Z,21.12
2023-06-14T13:35:01.176Z,21.34
2023-06-14T13:36:01.071Z,21.13
2023-06-14T13:37:01.025Z,20.83
2023-06-14T13:38:01.142Z,20.72
2023-06-14T13:39:00.988Z,20.82
2023-06-14T13:40:01.655Z,20.89
2023-06-14T13:41:01.644Z,20.85
2023-06-14T13:42:01.396Z,21.01
2023-06-14T13:43:01.111Z,20.97
2023-06-14T13:44:01.700Z,21.06
2023-06-14T13:45:01.172Z,21.36
2023-06-14T13:46:01.033Z,21.84
2023-06-14T13:47:01.163Z,21.63
2023-06-14T13:48:00.909Z,21.32
2023-06-14T13:49:01.011Z,21.22
2023-06-14T13:50:01.001Z,21.20
2023-06-14T13:51:01.056Z,21.18
2023-06-14T13:52:01.096Z,21.26
2023-06-14T13:53:00.938Z,21.28
2023-06-14T13:54:00.989Z,21.13
2023-06-14T13:55:00.929Z,21.72
2023-06-14T13:56:02.983Z,21.93
2023-06-14T13:57:02.140Z,21.97
2023-06-14T13:58:00.935Z,21.86
2023-06-14T13:59:01.095Z,21.88
2023-06-14T14:00:01.167Z,21.75
2023-06-14T14:01:01.235Z,21.88
2023-06-14T14:02:01.241Z,21.80
2023-06-14T14:03:01.863Z,21.96
2023-06-14T14:04:02.068Z,22.12
2023-06-14T14:05:01.311Z,22.12
2023-06-14T14:06:01.297Z,22.28
2023-06-14T14:07:02.140Z,22.47
2023-06-14T14:08:01.234Z,22.31
2023-06-14T14:09:01.301Z,22.09
2023-06-14T14:10:02.347Z,22.33
2023-06-14T14:11:01.993Z,22.47
2023-06-14T14:12:01.283Z,22.45
2023-06-14T14:13:01.348Z,22.19
2023-06-14T14:14:01.484Z,22.08
2023-06-14T14:15:01.595Z,21.90
2023-06-14T14:16:01.617Z,21.87
2023-06-14T14:17:02.511Z,21.79
2023-06-14T14:18:01.727Z,22.01
2023-06-14T14:19:01.625Z,22.22
2023-06-14T14:20:01.861Z,22.42
2023-06-14T14:21:01.875Z,22.49
2023-06-14T14:22:01.811Z,22.49
2023-06-14T14:23:02.672Z,22.70
2023-06-14T14:24:01.788Z,22.55
2023-06-14T14:25:01.637Z,22.14
2023-06-14T14:26:01.861Z,22.06
2023-06-14T14:27:02.090Z,22.02
2023-06-14T14:28:01.871Z,21.91
2023-06-14T14:29:01.924Z,22.06
2023-06-14T14:30:01.903Z,22.13
2023-06-14T14:31:02.649Z,22.26
2023-06-14T14:32:02.098Z,22.61
2023-06-14T14:33:02.370Z,22.88
2023-06-14T14:34:02.067Z,23.33
2023-06-14T14:35:02.215Z,23.37
2023-06-14T14:36:02.257Z,23.03
2023-06-14T14:37:02.293Z,22.97
2023-06-14T14:38:02.358Z,22.89
2023-06-14T14:39:02.311Z,22.73
2023-06-14T14:40:02.256Z,22.65
2023-06-14T14:41:02.449Z,22.71
2023-06-14T14:42:03.394Z,23.03
2023-06-14T14:43:02.410Z,23.14
2023-06-14T14:44:02.526Z,23.37
2023-06-14T14:45:02.530Z,23.59
2023-06-14T14:46:02.442Z,23.57
2023-06-14T14:47:04.154Z,23.60
2023-06-14T14:48:02.713Z,23.44
2023-06-14T14:49:02.611Z,23.30
2023-06-14T14:50:02.653Z,23.24
2023-06-14T14:51:02.732Z,23.15
2023-06-14T14:52:14.683Z,23.07
2023-06-14T14:53:03.735Z,23.10
2023-06-14T14:54:02.635Z,23.25
2023-06-14T14:55:02.692Z,23.27
2023-06-14T14:56:03.237Z,23.09
2023-06-14T14:57:02.778Z,23.16
2023-06-14T14:58:02.769Z,23.09
2023-06-14T14:59:02.815Z,22.95
2023-06-14T15:00:02.733Z,22.84
2023-06-14T15:01:03.941Z,22.76
2023-06-14T15:02:02.561Z,22.61
2023-06-14T15:03:02.820Z,22.93
2023-06-14T15:04:02.801Z,23.23
2023-06-14T15:05:02.913Z,23.54
2023-06-14T15:06:02.722Z,23.94
2023-06-14T15:07:02.884Z,23.95
2023-06-14T15:08:02.852Z,23.80
2023-06-14T15:09:03.928Z,23.83
2023-06-14T15:10:03.693Z,23.74
2023-06-14T15:11:02.908Z,23.51
2023-06-14T15:12:02.782Z,23.46
2023-06-14T15:13:03.559Z,23.12
2023-06-14T15:14:02.990Z,23.08
2023-06-14T15:15:04.674Z,22.91
2023-06-14T15:16:03.561Z,23.16
2023-06-14T15:17:03.074Z,23.49
2023-06-14T15:18:02.905Z,23.50
2023-06-14T15:19:03.033Z,23.72
2023-06-14T15:20:03.685Z,23.89
2023-06-14T15:21:03.257Z,23.78
2023-06-14T15:22:03.136Z,23.73
2023-06-14T15:23:03.069Z,23.59
2023-06-14T15:24:03.188Z,23.54
2023-06-14T15:25:03.464Z,23.34
2023-06-14T15:26:03.260Z,23.30
2023-06-14T15:27:04.453Z,23.37
2023-06-14T15:28:03.333Z,23.62
2023-06-14T15:29:04.307Z,23.68
2023-06-14T15:30:03.552Z,23.61
2023-06-14T15:31:03.939Z,23.85
2023-06-14T15:32:03.497Z,24.15
2023-06-14T16:32:31.588Z,27.36
2023-06-14T16:33:30.984Z,26.47
2023-06-14T16:34:31.129Z,26.43
2023-06-14T16:35:31.608Z,26.43
2023-06-14T16:36:30.968Z,26.30
2023-06-14T16:37:30.932Z,26.54
2023-06-14T16:38:30.927Z,26.69
2023-06-14T16:39:30.922Z,26.81
2023-06-14T16:40:30.991Z,26.70
2023-06-14T16:41:30.936Z,26.55
2023-06-14T16:42:30.962Z,26.55
2023-06-14T16:43:31.701Z,26.61
2023-06-14T16:44:30.960Z,26.51
2023-06-14T16:45:30.894Z,26.40
2023-06-14T16:46:30.952Z,26.28
2023-06-14T16:47:30.971Z,26.39
2023-06-14T16:48:30.935Z,26.51
2023-06-14T16:49:30.900Z,26.72
2023-06-14T16:50:30.895Z,26.85
2023-06-14T16:51:30.906Z,26.96
2023-06-14T16:52:30.903Z,27.15
2023-06-14T16:53:30.918Z,27.22
2023-06-14T16:54:30.898Z,27.25
2023-06-14T16:55:30.929Z,27.33
2023-06-14T16:56:30.865Z,27.14
2023-06-14T16:57:30.951Z,27.16
2023-06-14T16:58:30.908Z,27.16
2023-06-14T16:59:30.965Z,27.28
2023-06-14T17:00:30.967Z,27.60
2023-06-14T17:01:31.300Z,27.55
2023-06-14T17:02:31.078Z,27.50
2023-06-14T17:03:31.097Z,27.26
2023-06-14T17:04:31.103Z,27.22
2023-06-14T17:05:31.053Z,27.29
2023-06-14T17:06:31.060Z,27.47
2023-06-14T17:07:31.042Z,27.45
2023-06-14T17:08:31.123Z,27.54
2023-06-14T17:09:31.713Z,27.70
2023-06-14T17:10:31.228Z,27.58
2023-06-14T17:11:31.161Z,27.49
2023-06-14T17:12:31.144Z,27.43
2023-06-14T17:13:31.225Z,27.53
2023-06-14T17:14:31.190Z,27.77
2023-06-14T17:15:31.292Z,27.90
2023-06-14T17:16:31.349Z,27.87
2023-06-14T17:17:31.373Z,27.84
2023-06-14T17:18:31.400Z,27.80
2023-06-14T17:19:31.398Z,27.57
2023-06-14T17:20:31.443Z,27.39
2023-06-14T17:21:31.536Z,27.35
2023-06-14T17:22:31.490Z,27.47
2023-06-14T17:23:31.522Z,27.36
2023-06-14T17:24:31.655Z,27.54
2023-06-14T17:25:31.566Z,27.50
2023-06-14T17:26:31.623Z,27.56
2023-06-14T17:27:31.698Z,27.75
2023-06-14T17:28:31.777Z,27.94
2023-06-14T17:29:31.727Z,28.13
2023-06-14T17:30:31.693Z,28.14
2023-06-14T17:31:31.682Z,28.23
2023-06-14T17:32:31.838Z,28.21
2023-06-14T17:33:31.781Z,28.14
2023-06-14T17:34:31.815Z,27.78
2023-06-14T17:35:31.789Z,27.67
2023-06-14T17:36:31.827Z,27.84
2023-06-14T17:37:31.886Z,28.06
2023-06-14T17:38:31.884Z,28.18
2023-06-14T17:39:31.869Z,28.26
2023-06-14T17:40:45.139Z,28.17
2023-06-14T17:41:33.739Z,28.16
2023-06-14T17:42:31.943Z,28.20
2023-06-14T17:43:31.885Z,28.21
2023-06-14T17:44:31.835Z,28.04
2023-06-14T17:45:31.884Z,28.01
2023-06-14T17:46:31.948Z,27.95
2023-06-14T17:47:36.167Z,27.87
2023-06-14T17:48:32.828Z,28.00
2023-06-14T17:49:31.822Z,28.26
2023-06-14T17:50:31.830Z,28.28
2023-06-14T17:51:32.756Z,28.39
2023-06-14T17:52:31.934Z,28.47
2023-06-14T17:53:31.908Z,28.54
2023-06-14T17:54:31.811Z,28.64
2023-06-14T17:55:31.767Z,28.48
2023-06-14T17:56:31.746Z,28.22
2023-06-14T17:57:31.738Z,28.20
2023-06-14T17:58:31.731Z,28.23
2023-06-14T17:59:31.838Z,28.24
2023-06-14T18:00:31.756Z,28.46
2023-06-14T18:01:31.800Z,28.60
2023-06-14T18:02:31.825Z,28.69
2023-06-14T18:03:31.844Z,28.71
2023-06-14T18:04:31.701Z,28.87
2023-06-14T18:05:31.760Z,29.08
2023-06-14T18:06:31.779Z,29.04
2023-06-14T18:07:31.866Z,28.96
2023-06-14T18:08:31.865Z,28.70
2023-06-14T18:09:31.905Z,28.65
2023-06-14T18:10:31.971Z,28.59
2023-06-14T18:11:32.120Z,28.69
2023-06-14T18:12:32.047Z,29.10
2023-06-14T18:13:32.082Z,29.29
2023-06-14T18:14:32.146Z,29.51
2023-06-14T18:15:32.205Z,29.62
2023-06-14T18:16:32.314Z,29.86
2023-06-14T18:17:32.288Z,30.04
2023-06-14T18:18:32.265Z,30.14
2023-06-14T18:19:32.296Z,30.01
2023-06-14T18:20:32.447Z,29.83
2023-06-14T18:21:32.311Z,29.76
2023-06-14T18:22:32.347Z,29.76
2023-06-14T18:23:32.320Z,29.63
2023-06-14T18:24:32.405Z,29.66
2023-06-14T18:25:32.414Z,29.83
2023-06-14T18:26:32.524Z,29.88
2023-06-14T18:27:32.418Z,30.12
2023-06-14T18:28:32.508Z,30.62
2023-06-14T18:29:32.488Z,30.80
2023-06-14T21:14:00.719Z,37.32
2023-06-14T21:15:00.667Z,37.28
2023-06-14T21:16:00.772Z,37.20
2023-06-14T21:17:00.925Z,37.12
2023-06-14T21:18:00.845Z,36.76
2023-06-14T21:19:00.821Z,36.59
2023-06-14T21:20:00.862Z,36.46
2023-06-14T21:21:00.907Z,36.23
2023-06-14T21:22:00.908Z,36.19
2023-06-14T21:23:00.963Z,36.15
2023-06-14T21:24:00.996Z,36.05
2023-06-14T21:25:00.995Z,35.99
2023-06-14T21:26:00.975Z,35.94
2023-06-14T21:27:01.018Z,35.96
2023-06-14T21:28:00.967Z,35.94
2023-06-14T21:29:01.041Z,35.96
2023-06-14T21:30:01.115Z,36.04
2023-06-14T21:31:01.133Z,36.01
2023-06-14T21:32:01.479Z,36.02
2023-06-14T21:33:01.350Z,36.07
2023-06-14T21:34:01.315Z,36.03
2023-06-14T21:35:01.419Z,36.00
2023-06-14T21:36:01.432Z,36.02
2023-06-14T21:37:01.557Z,36.08
2023-06-14T21:38:01.590Z,36.13
2023-06-14T21:39:01.641Z,36.08
2023-06-14T21:40:04.340Z,36.16
2023-06-14T21:41:01.711Z,36.09
2023-06-14T21:42:01.681Z,36.07
2023-06-14T21:43:01.710Z,36.19
2023-06-14T21:44:02.622Z,36.23
2023-06-14T21:45:01.652Z,36.21
2023-06-14T21:46:01.667Z,36.16
2023-06-14T21:47:01.786Z,36.22
2023-06-14T21:48:01.739Z,36.14
2023-06-14T21:49:01.654Z,36.11
2023-06-14T21:50:01.614Z,36.13
2023-06-14T21:51:01.687Z,36.18
2023-06-14T21:52:01.615Z,36.55
2023-06-14T21:53:01.600Z,37.05
2023-06-14T21:54:01.673Z,37.49
2023-06-14T21:55:01.584Z,37.52
2023-06-14T21:56:01.592Z,37.20
2023-06-14T21:57:01.623Z,37.36
2023-06-14T21:58:01.609Z,37.85
2023-06-14T21:59:01.568Z,37.77
2023-06-14T22:00:01.585Z,37.62
2023-06-14T22:01:01.584Z,37.13
2023-06-14T22:02:01.587Z,37.25
2023-06-14T22:03:01.696Z,37.60
2023-06-14T22:04:01.580Z,37.55
2023-06-14T22:05:01.514Z,37.57
2023-06-14T22:06:01.514Z,37.32
2023-06-14T22:07:01.557Z,37.21
2023-06-14T22:08:01.540Z,37.31
2023-06-14T22:09:01.488Z,37.10
2023-06-14T22:10:01.481Z,36.96
2023-06-14T22:11:01.484Z,37.46
2023-06-14T22:12:01.483Z,37.80
2023-06-14T22:13:01.492Z,37.97
2023-06-14T22:14:01.460Z,37.97
2023-06-14T22:15:02.084Z,38.59
2023-06-14T22:16:01.434Z,38.75
2023-06-14T22:17:01.493Z,39.16
2023-06-14T22:18:01.600Z,39.32
2023-06-14T22:19:01.609Z,39.64
2023-06-14T22:20:01.414Z,39.79
2023-06-14T22:21:01.426Z,39.91
2023-06-14T22:22:01.432Z,40.05
2023-06-14T22:23:01.447Z,40.13
2023-06-14T22:24:01.453Z,40.14
2023-06-14T22:25:01.398Z,40.53
2023-06-14T22:26:01.504Z,40.70
2023-06-14T22:27:01.496Z,40.85
2023-06-14T22:28:01.568Z,40.85
2023-06-14T22:29:01.666Z,41.19
2023-06-14T22:30:01.691Z,41.24
2023-06-14T22:31:01.693Z,41.20
2023-06-14T22:32:01.791Z,41.39
2023-06-14T22:33:01.780Z,41.58
2023-06-14T22:34:01.753Z,41.73
2023-06-14T22:35:01.762Z,41.92
2023-06-14T22:36:01.823Z,42.05
2023-06-14T22:37:01.834Z,42.20
2023-06-14T22:38:01.912Z,42.21
2023-06-14T22:39:01.913Z,42.58
2023-06-14T22:40:01.948Z,43.14
2023-06-14T22:41:02.104Z,43.41
2023-06-14T22:42:02.041Z,43.82
2023-06-14T22:43:02.075Z,43.94
2023-06-14T22:44:02.081Z,44.34
2023-06-14T22:45:02.137Z,44.74
2023-06-14T22:46:02.189Z,44.93
2023-06-14T22:47:02.222Z,45.11
2023-06-14T22:48:02.306Z,45.10
2023-06-14T22:49:02.355Z,45.18
2023-06-14T22:50:08.238Z,45.56
2023-06-14T22:51:03.353Z,45.93
2023-06-14T22:52:02.490Z,46.13
2023-06-14T22:53:02.300Z,46.34
2023-06-14T22:54:02.358Z,46.58
2023-06-14T22:55:02.353Z,46.74
2023-06-14T22:56:02.356Z,46.94
2023-06-14T22:57:02.341Z,47.14
2023-06-14T22:58:02.412Z,47.18
2023-06-14T22:59:02.293Z,47.29
2023-06-14T23:00:02.349Z,47.36
